Time;durP1;ratioP1;P1;durP2;ratioP2;P2;SDS_P1;SDS_P2;PMS_P1;PMS_P2;Temp;Humidity;BMP_temperature;BMP_pressure;BME280_temperature;BME280_humidity;BME280_pressure;Samples;Min_cycle;Max_cycle;Signal;HPM_P1;HPM_P2
2023/01/25 00:00:50;;;;;;;27.50;16.60;;;;;;;-1.41;77.76;101592.02;105971;1253;60438;-80
2023/01/25 00:03:16;;;;;;;24.10;17.10;;;;;;;-1.45;77.44;101599.98;106305;1254;71471;-84
2023/01/25 00:05:43;;;;;;;26.40;17.10;;;;;;;-1.50;77.20;101600.80;109268;1251;68734;-82
2023/01/25 00:08:10;;;;;;;22.80;15.50;;;;;;;-1.41;77.06;101596.55;109095;1254;71690;-83
2023/01/25 00:10:36;;;;;;;23.10;14.70;;;;;;;-1.31;76.73;101595.57;109096;1254;58246;-82
2023/01/25 00:13:03;;;;;;;22.10;14.60;;;;;;;-1.32;76.96;101596.61;106574;1253;61590;-78
2023/01/25 00:15:31;;;;;;;27.00;16.00;;;;;;;-1.35;76.80;101598.79;105978;1257;73650;-79
2023/01/25 00:17:58;;;;;;;22.00;14.80;;;;;;;-1.36;76.71;101596.77;106130;1254;70581;-77
2023/01/25 00:20:25;;;;;;;25.30;18.30;;;;;;;-1.38;76.59;101596.65;106048;1257;73441;-77
2023/01/25 00:22:52;;;;;;;25.20;17.00;;;;;;;-1.44;76.34;101592.95;106021;1252;60441;-79
2023/01/25 00:25:18;;;;;;;25.10;15.40;;;;;;;-1.47;76.51;101588.71;105997;1254;60560;-79
2023/01/25 00:27:45;;;;;;;24.00;17.10;;;;;;;-1.49;76.45;101579.57;106109;1256;73073;-79
2023/01/25 00:30:12;;;;;;;22.00;15.60;;;;;;;-1.52;76.48;101583.48;106104;1254;60552;-80
2023/01/25 00:32:53;;;;;;;23.80;13.80;;;;;;;-1.58;76.06;101585.22;105994;1252;72587;-80
2023/01/25 00:35:20;;;;;;;25.30;14.40;;;;;;;-1.55;75.72;101584.98;106013;1254;60608;-80
2023/01/25 00:37:48;;;;;;;23.00;13.20;;;;;;;-1.52;75.67;101583.67;105898;1254;60528;-81
2023/01/25 00:40:19;;;;;;;28.10;15.60;;;;;;;-1.54;75.90;101581.83;106073;1255;74805;-81
2023/01/25 00:42:46;;;;;;;20.90;13.30;;;;;;;-1.58;75.96;101576.04;106069;1254;70663;-80
2023/01/25 00:45:13;;;;;;;27.40;14.10;;;;;;;-1.63;76.09;101571.64;106245;1257;70856;-80
2023/01/25 00:47:40;;;;;;;19.80;13.80;;;;;;;-1.69;76.07;101570.08;106373;1257;60494;-78
2023/01/25 00:50:08;;;;;;;22.50;15.40;;;;;;;-1.74;76.07;101572.33;106907;1252;60450;-81
2023/01/25 00:52:34;;;;;;;23.80;14.30;;;;;;;-1.79;76.11;101571.23;106318;1254;72892;-80
2023/01/25 00:55:04;;;;;;;21.50;14.20;;;;;;;-1.81;76.25;101571.13;107270;1253;70677;-82
2023/01/25 00:57:31;;;;;;;21.70;13.50;;;;;;;-1.82;76.26;101571.66;106451;1257;71230;-81
2023/01/25 00:59:58;;;;;;;19.70;12.90;;;;;;;-1.82;76.28;101566.64;106163;1254;60962;-80
2023/01/25 01:02:29;;;;;;;21.90;13.60;;;;;;;-1.83;76.14;101566.50;105954;1257;60695;-78
2023/01/25 01:04:56;;;;;;;17.90;11.50;;;;;;;-1.74;75.92;101564.68;105958;1254;74377;-77
2023/01/25 01:07:23;;;;;;;18.60;12.60;;;;;;;-1.65;75.97;101564.23;106313;1254;70351;-77
2023/01/25 01:09:51;;;;;;;22.60;14.60;;;;;;;-1.62;76.12;101563.96;106180;1254;71386;-79
2023/01/25 01:12:18;;;;;;;20.30;14.30;;;;;;;-1.58;76.36;101563.85;107847;1254;60402;-79
2023/01/25 01:14:45;;;;;;;23.40;14.90;;;;;;;-1.56;76.02;101566.93;107398;1254;60523;-78
2023/01/25 01:17:12;;;;;;;22.00;14.40;;;;;;;-1.57;75.84;101567.13;107330;1254;73862;-79
2023/01/25 01:19:39;;;;;;;18.70;13.60;;;;;;;-1.57;75.80;101569.05;108299;1254;68689;-77
2023/01/25 01:22:07;;;;;;;22.20;14.70;;;;;;;-1.63;75.58;101564.69;106895;1253;73592;-79
2023/01/25 01:24:34;;;;;;;23.30;13.80;;;;;;;-1.70;75.48;101567.85;108979;1254;58484;-78
2023/01/25 01:27:02;;;;;;;23.30;13.90;;;;;;;-1.75;75.61;101568.70;106522;1254;60549;-80
2023/01/25 01:29:29;;;;;;;22.90;14.90;;;;;;;-1.80;75.54;101566.59;106058;1254;71760;-79
2023/01/25 01:31:56;;;;;;;23.20;13.50;;;;;;;-1.82;75.80;101565.77;105648;1254;71597;-81
2023/01/25 01:34:24;;;;;;;17.90;12.00;;;;;;;-1.71;75.60;101567.04;106112;1254;73822;-81
2023/01/25 01:36:51;;;;;;;19.20;13.40;;;;;;;-1.60;75.45;101568.08;106324;1253;60424;-80
2023/01/25 01:39:18;;;;;;;20.60;13.30;;;;;;;-1.58;75.48;101569.26;106790;1254;60418;-77
2023/01/25 01:41:48;;;;;;;23.00;13.60;;;;;;;-1.60;75.45;101561.64;105874;1254;75020;-76
2023/01/25 01:44:17;;;;;;;23.40;14.80;;;;;;;-1.63;75.35;101561.56;106180;1254;70061;-78
2023/01/25 01:46:51;;;;;;;26.00;16.00;;;;;;;-1.70;75.29;101559.01;107605;1253;72536;-77
2023/01/25 01:49:27;;;;;;;23.10;14.50;;;;;;;-1.75;75.64;101557.08;108507;1254;59053;-76
2023/01/25 01:52:00;;;;;;;22.80;14.10;;;;;;;-1.84;75.68;101554.89;108749;1252;60301;-75
2023/01/25 01:54:46;;;;;;;27.20;16.30;;;;;;;-1.93;75.78;101559.67;107041;1257;72953;-75
2023/01/25 01:57:15;;;;;;;20.30;13.50;;;;;;;-1.96;76.19;101552.83;106031;1254;70040;-78
2023/01/25 01:59:57;;;;;;;22.30;13.20;;;;;;;-1.98;75.90;101546.94;105970;1254;72955;-77
2023/01/25 02:02:24;;;;;;;23.30;12.30;;;;;;;-1.90;75.72;101546.04;105762;1254;60455;-78
2023/01/25 02:04:58;;;;;;;22.60;13.00;;;;;;;-1.82;75.70;101543.36;105928;1254;60457;-77
2023/01/25 02:07:33;;;;;;;21.40;12.90;;;;;;;-1.80;75.99;101540.34;105530;1259;73336;-78
2023/01/25 02:10:03;;;;;;;22.70;13.40;;;;;;;-1.78;75.81;101537.51;105582;1259;69483;-78
2023/01/25 02:12:30;;;;;;;19.10;12.00;;;;;;;-1.77;75.77;101537.48;105761;1258;71351;-77
2023/01/25 02:15:00;;;;;;;20.20;13.70;;;;;;;-1.79;75.68;101537.73;106374;1254;60479;-75
2023/01/25 02:17:29;;;;;;;19.50;14.10;;;;;;;-1.83;75.43;101534.52;106537;1253;60503;-79
2023/01/25 02:20:23;;;;;;;23.90;13.00;;;;;;;-1.86;75.36;101531.30;106945;1254;72968;-78
2023/01/25 02:23:28;;;;;;;17.90;12.90;;;;;;;-1.91;75.38;101526.77;107368;1254;70560;-78
2023/01/25 02:25:57;;;;;;;19.50;13.10;;;;;;;-2.02;75.47;101528.48;106185;1257;72880;-79
2023/01/25 02:28:31;;;;;;;21.70;12.80;;;;;;;-2.07;75.51;101525.67;106407;1253;60497;-78
2023/01/25 02:30:57;;;;;;;;;;;;;;;-2.01;75.52;101526.02;105669;1259;61498;-76
2023/01/25 02:33:25;;;;;;;21.50;13.60;;;;;;;-1.95;75.42;101523.94;105577;1253;73760;-77
2023/01/25 02:36:16;;;;;;;27.60;14.30;;;;;;;-2.00;75.52;101519.91;106009;1254;70001;-76
2023/01/25 02:38:56;;;;;;;22.60;13.70;;;;;;;-2.07;75.76;101519.58;105683;1257;72669;-77
2023/01/25 02:41:33;;;;;;;22.80;13.60;;;;;;;-2.13;75.89;101522.55;105547;1254;60510;-76
2023/01/25 02:44:01;;;;;;;21.90;13.40;;;;;;;-2.19;75.84;101521.84;105831;1254;60323;-76
2023/01/25 02:46:30;;;;;;;26.20;15.00;;;;;;;-2.27;75.95;101525.00;105913;1254;72816;-77
2023/01/25 02:48:58;;;;;;;20.90;13.70;;;;;;;-2.31;76.22;101523.73;105583;1257;69168;-76
2023/01/25 02:51:30;;;;;;;23.50;15.00;;;;;;;-2.33;76.24;101526.05;105699;1257;72558;-77
2023/01/25 02:53:56;;;;;;;21.50;13.00;;;;;;;-2.36;76.40;101530.83;105536;1254;60532;-77
2023/01/25 02:56:24;;;;;;;19.90;13.10;;;;;;;-2.37;76.40;101528.05;105877;1254;60544;-77
2023/01/25 02:58:51;;;;;;;19.80;12.20;;;;;;;-2.26;76.35;101523.26;106061;1253;76690;-76
2023/01/25 03:01:18;;;;;;;21.30;13.70;;;;;;;-2.26;76.16;101521.69;107959;1254;69845;-76
2023/01/25 03:03:45;;;;;;;20.30;13.80;;;;;;;-2.27;76.51;101519.45;105844;1257;70699;-77
2023/01/25 03:06:12;;;;;;;20.50;15.10;;;;;;;-2.27;76.68;101517.89;105732;1257;60859;-77
2023/01/25 03:08:39;;;;;;;23.30;16.30;;;;;;;-2.27;76.67;101519.82;105644;1254;60642;-77
2023/01/25 03:11:06;;;;;;;24.30;16.50;;;;;;;-2.28;76.91;101520.71;105562;1259;73927;-77
2023/01/25 03:13:33;;;;;;;22.20;13.90;;;;;;;-2.32;76.70;101521.34;105491;1259;68441;-76
2023/01/25 03:16:08;;;;;;;21.30;14.20;;;;;;;-2.39;76.69;101519.10;105759;1257;70561;-77
2023/01/25 03:18:35;;;;;;;21.40;14.70;;;;;;;-2.45;76.85;101519.95;105694;1257;60447;-77
2023/01/25 03:21:08;;;;;;;20.60;13.30;;;;;;;-2.45;77.23;101522.38;105892;1254;60424;-76
2023/01/25 03:23:35;;;;;;;22.20;13.50;;;;;;;-2.42;77.13;101519.88;106916;1256;74604;-77
2023/01/25 03:26:18;;;;;;;20.90;13.70;;;;;;;-2.31;77.01;101520.44;107752;1253;69021;-79
2023/01/25 03:29:04;;;;;;;20.90;13.50;;;;;;;-2.25;77.11;101523.56;106481;1257;73081;-78
2023/01/25 03:31:32;;;;;;;21.50;14.60;;;;;;;-2.30;77.34;101520.60;106452;1254;60465;-78
2023/01/25 03:33:59;;;;;;;21.40;13.40;;;;;;;-2.34;77.43;101519.99;105737;1253;60574;-77
2023/01/25 03:36:31;;;;;;;24.70;15.20;;;;;;;-2.33;77.65;101525.35;105697;1256;74739;-76
2023/01/25 03:38:59;;;;;;;23.30;15.80;;;;;;;-2.30;77.83;101523.73;105531;1254;70672;-75
2023/01/25 03:41:25;;;;;;;23.90;16.10;;;;;;;-2.28;77.78;101523.47;105555;1254;72938;-74
2023/01/25 03:43:53;;;;;;;22.50;14.90;;;;;;;-2.28;77.82;101528.67;105473;1254;60512;-75
2023/01/25 03:46:20;;;;;;;27.10;15.40;;;;;;;-2.31;77.64;101529.30;105430;1260;60742;-75
2023/01/25 03:48:47;;;;;;;22.20;13.90;;;;;;;-2.34;77.69;101526.77;105691;1256;74879;-76
2023/01/25 03:51:14;;;;;;;19.30;12.70;;;;;;;-2.24;77.72;101523.20;105582;1254;69061;-76
2023/01/25 03:53:40;;;;;;;18.60;12.70;;;;;;;-2.12;77.81;101525.81;105560;1254;72841;-75
2023/01/25 03:56:19;;;;;;;22.80;13.30;;;;;;;-2.12;77.64;101528.60;105962;1254;60417;-75
2023/01/25 03:58:52;;;;;;;19.70;14.10;;;;;;;-2.14;77.52;101533.86;105658;1254;60472;-75
2023/01/25 04:01:19;;;;;;;21.30;14.40;;;;;;;-2.19;77.75;101532.41;105915;1257;74302;-75
2023/01/25 04:03:46;;;;;;;21.50;13.70;;;;;;;-2.21;77.64;101532.64;105580;1254;69763;-74
2023/01/25 04:06:13;;;;;;;23.20;14.70;;;;;;;-2.25;77.43;101533.64;105732;1254;72839;-75
2023/01/25 04:08:39;;;;;;;33.10;20.40;;;;;;;-2.28;77.67;101532.33;105441;1254;60802;-76
2023/01/25 04:11:08;;;;;;;25.00;15.00;;;;;;;-2.29;77.65;101529.41;105632;1252;60498;-77
2023/01/25 04:13:37;;;;;;;18.80;13.10;;;;;;;-2.34;77.70;101526.77;105709;1257;74568;-74
2023/01/25 04:16:06;;;;;;;21.80;13.70;;;;;;;-2.27;77.71;101531.26;105875;1255;68252;-73
2023/01/25 04:18:52;;;;;;;21.70;14.00;;;;;;;-2.12;77.47;101531.38;105592;1256;72754;-74
2023/01/25 04:21:19;;;;;;;20.20;13.30;;;;;;;-2.14;77.27;101528.30;105793;1254;60444;-75
2023/01/25 04:23:45;;;;;;;21.40;14.00;;;;;;;-2.17;77.54;101532.38;105555;1254;60626;-76
2023/01/25 04:26:13;;;;;;;23.30;15.60;;;;;;;-2.22;77.45;101531.83;105815;1254;74814;-74
2023/01/25 04:28:41;;;;;;;20.70;14.60;;;;;;;-2.33;77.36;101528.82;105985;1254;69436;-75
2023/01/25 04:31:10;;;;;;;20.70;14.40;;;;;;;-2.40;77.51;101531.61;106170;1256;73735;-75
2023/01/25 04:33:39;;;;;;;19.40;12.90;;;;;;;-2.44;77.72;101529.99;107050;1254;59269;-77
2023/01/25 04:36:07;;;;;;;26.80;15.00;;;;;;;-2.47;77.75;101529.02;106904;1252;61249;-78
2023/01/25 04:38:34;;;;;;;20.50;13.10;;;;;;;-2.48;78.04;101528.02;106817;1257;71704;-77
2023/01/25 04:41:03;;;;;;;18.40;12.60;;;;;;;-2.49;77.93;101534.63;105706;1254;70314;-76
2023/01/25 04:43:30;;;;;;;21.30;11.80;;;;;;;-2.40;77.68;101531.61;105716;1254;72829;-75
2023/01/25 04:46:01;;;;;;;20.30;12.00;;;;;;;-2.30;77.56;101526.14;107201;1254;60492;-76
2023/01/25 04:48:32;;;;;;;17.70;11.80;;;;;;;-2.27;77.80;101526.40;105783;1253;60552;-75
2023/01/25 04:51:01;;;;;;;19.00;12.80;;;;;;;-2.26;77.68;101526.39;105898;1253;75001;-74
2023/01/25 04:53:28;;;;;;;19.30;13.20;;;;;;;-2.31;77.73;101525.13;105527;1254;69450;-75
2023/01/25 04:55:58;;;;;;;20.80;12.60;;;;;;;-2.33;77.86;101524.30;105646;1254;73881;-76
2023/01/25 04:58:24;;;;;;;17.80;12.70;;;;;;;-2.29;77.86;101529.92;105722;1254;60523;-78
2023/01/25 05:00:51;;;;;;;22.10;14.80;;;;;;;-2.28;77.76;101526.61;105791;1254;60466;-77
2023/01/25 05:03:18;;;;;;;22.30;14.30;;;;;;;-2.28;77.71;101533.04;105682;1254;73814;-76
2023/01/25 05:05:46;;;;;;;19.30;13.00;;;;;;;-2.29;77.70;101532.89;105986;1254;69884;-77
2023/01/25 05:08:13;;;;;;;19.70;11.90;;;;;;;-2.19;77.33;101531.89;106011;1254;72512;-77
2023/01/25 05:10:41;;;;;;;17.60;11.50;;;;;;;-2.07;77.15;101533.99;105693;1254;60527;-75
2023/01/25 05:13:37;;;;;;;17.30;11.60;;;;;;;-2.06;77.05;101541.10;105593;1257;60549;-75
2023/01/25 05:16:21;;;;;;;19.60;13.20;;;;;;;-2.12;76.94;101537.44;105494;1253;246802;-73
2023/01/25 05:24:07;;;;;;;23.60;13.80;;;;;;;-2.31;77.28;101535.54;104559;1273;59908;-77
2023/01/25 05:29:24;;;;;;;18.10;12.10;;;;;;;-2.47;77.24;101534.38;104845;1268;72470;-77
2023/01/25 05:32:00;;;;;;;19.10;12.30;;;;;;;-2.43;77.10;101528.41;104721;1269;69318;-77
2023/01/25 05:34:29;;;;;;;20.10;12.70;;;;;;;-2.42;77.21;101524.52;104912;1273;163774;-80
2023/01/25 05:36:58;;;;;;;18.60;13.10;;;;;;;-2.44;77.51;101527.55;106563;1265;60517;-81
2023/01/25 05:39:26;;;;;;;24.50;14.30;;;;;;;-2.43;77.87;101525.80;107759;1268;59252;-83
2023/01/25 05:41:56;;;;;;;21.60;12.80;;;;;;;-2.39;77.72;101523.08;107591;1266;73078;-77
2023/01/25 05:44:28;;;;;;;17.20;12.60;;;;;;;-2.36;77.73;101523.86;107879;1265;69255;-78
2023/01/25 05:47:01;;;;;;;18.80;11.90;;;;;;;-2.34;77.57;101530.95;105897;1259;72490;-78
2023/01/25 05:49:29;;;;;;;18.20;13.30;;;;;;;-2.35;77.63;101528.53;105375;1259;60691;-76
2023/01/25 05:51:58;;;;;;;21.20;14.40;;;;;;;-2.40;77.51;101527.08;105525;1261;61353;-75
2023/01/25 05:54:27;;;;;;;20.40;13.00;;;;;;;-2.42;77.50;101529.73;105382;1260;71074;-77
2023/01/25 05:57:01;;;;;;;18.60;12.50;;;;;;;-2.32;77.43;101535.73;106537;1256;71608;-77
2023/01/25 05:59:30;;;;;;;19.40;11.20;;;;;;;-2.20;77.26;101534.73;105971;1255;72572;-77
2023/01/25 06:01:58;;;;;;;19.50;12.40;;;;;;;-2.22;76.98;101538.05;106080;1259;60076;-79
2023/01/25 06:04:27;;;;;;;21.80;13.50;;;;;;;-2.26;77.27;101536.09;105776;1255;59862;-79
2023/01/25 06:06:55;;;;;;;22.10;14.30;;;;;;;-2.30;77.22;101534.98;105934;1258;73247;-78
2023/01/25 06:09:23;;;;;;;20.30;13.80;;;;;;;-2.34;77.34;101534.58;106019;1256;70193;-79
2023/01/25 06:11:52;;;;;;;25.50;15.60;;;;;;;-2.38;77.18;101530.51;107016;1254;72897;-80
2023/01/25 06:14:22;;;;;;;22.60;15.20;;;;;;;-2.40;77.39;101528.83;108595;1256;59902;-81
2023/01/25 06:16:50;;;;;;;21.00;14.80;;;;;;;-2.41;77.49;101528.36;105558;1256;61381;-79
2023/01/25 06:19:37;;;;;;;21.30;13.30;;;;;;;-2.42;77.50;101529.25;105636;1258;74169;-80
2023/01/25 06:22:16;;;;;;;21.80;13.20;;;;;;;-2.30;77.29;101530.12;105790;1258;69453;-79
2023/01/25 06:24:44;;;;;;;22.40;13.40;;;;;;;-2.22;77.05;101530.41;105671;1256;72227;-80
2023/01/25 06:27:12;;;;;;;22.20;13.60;;;;;;;-2.20;77.28;101530.89;105801;1256;60795;-82
2023/01/25 06:29:40;;;;;;;22.00;14.30;;;;;;;-2.19;77.33;101532.77;105904;1260;61532;-82
2023/01/25 06:32:08;;;;;;;21.70;13.80;;;;;;;-2.17;77.32;101525.79;106477;1256;73340;-77
2023/01/25 06:34:39;;;;;;;18.20;13.80;;;;;;;-2.19;77.19;101520.80;108455;1254;68514;-78
2023/01/25 06:37:10;;;;;;;21.70;14.60;;;;;;;-2.21;77.11;101523.98;108235;1256;72689;-82
2023/01/25 06:39:38;;;;;;;24.60;15.10;;;;;;;-2.25;77.18;101525.47;108486;1256;59316;-80
2023/01/25 06:42:06;;;;;;;25.40;16.30;;;;;;;-2.26;77.27;101527.60;106846;1254;60738;-81
2023/01/25 06:44:34;;;;;;;23.60;15.60;;;;;;;-2.30;77.29;101526.14;106965;1256;73063;-79
2023/01/25 06:47:02;;;;;;;27.60;17.20;;;;;;;-2.32;77.22;101524.99;108423;1256;68104;-80
2023/01/25 06:49:31;;;;;;;23.30;15.50;;;;;;;-2.23;77.12;101526.12;107126;1256;73122;-79
2023/01/25 06:52:00;;;;;;;20.30;15.30;;;;;;;-2.12;77.02;101530.51;105748;1255;60197;-77
2023/01/25 06:54:28;;;;;;;25.10;16.30;;;;;;;-2.11;77.11;101529.27;105791;1256;59654;-77
2023/01/25 06:56:57;;;;;;;23.90;16.20;;;;;;;-2.13;76.96;101520.27;105739;1258;71760;-76
2023/01/25 06:59:25;;;;;;;21.50;15.20;;;;;;;-2.19;76.85;101525.65;105886;1258;70257;-76
2023/01/25 07:01:53;;;;;;;24.20;14.50;;;;;;;-2.34;76.83;101524.15;105694;1256;70112;-78
2023/01/25 07:04:20;;;;;;;23.40;15.70;;;;;;;-2.49;77.03;101522.14;105674;1255;59749;-77
2023/01/25 07:06:49;;;;;;;20.00;14.10;;;;;;;-2.63;77.27;101519.73;105834;1254;59652;-77
2023/01/25 07:09:22;;;;;;;23.60;14.50;;;;;;;-2.63;77.31;101519.56;106008;1258;74241;-78
2023/01/25 07:11:51;;;;;;;24.70;14.90;;;;;;;-2.68;77.71;101516.92;105840;1254;71649;-76
2023/01/25 07:14:19;;;;;;;25.10;16.70;;;;;;;-2.78;77.95;101518.05;105498;1254;73133;-75
2023/01/25 07:16:48;;;;;;;27.20;17.30;;;;;;;-2.85;78.41;101520.30;105382;1256;59743;-77
2023/01/25 07:19:16;;;;;;;25.40;17.60;;;;;;;-2.88;78.58;101518.98;105458;1255;60651;-79
2023/01/25 07:21:45;;;;;;;20.50;16.00;;;;;;;-2.87;78.90;101525.54;105340;1261;72515;-77
2023/01/25 07:24:15;;;;;;;25.60;17.50;;;;;;;-2.87;78.82;101525.02;105533;1254;71394;-76
2023/01/25 07:26:43;;;;;;;24.40;15.50;;;;;;;-2.80;78.54;101518.79;105652;1254;73930;-76
2023/01/25 07:29:14;;;;;;;28.30;17.60;;;;;;;-2.71;78.48;101514.73;106414;1256;59719;-76
2023/01/25 07:31:42;;;;;;;28.60;18.50;;;;;;;-2.66;78.81;101517.73;106678;1259;60497;-76
2023/01/25 07:34:11;;;;;;;22.40;16.90;;;;;;;-2.64;78.63;101511.09;106198;1258;73255;-76
2023/01/25 07:36:40;;;;;;;26.80;18.60;;;;;;;-2.64;78.68;101508.66;106600;1255;69658;-74
2023/01/25 07:39:11;;;;;;;27.70;18.20;;;;;;;-2.65;78.58;101507.11;106066;1258;72530;-75
2023/01/25 07:41:39;;;;;;;26.30;19.10;;;;;;;-2.68;78.69;101506.17;105616;1256;59528;-76
2023/01/25 07:44:12;;;;;;;26.80;18.90;;;;;;;-2.71;78.90;101504.66;105821;1254;59567;-73
2023/01/25 07:46:46;;;;;;;30.40;18.80;;;;;;;-2.72;78.90;101504.02;106384;1256;74022;-76
2023/01/25 07:49:14;;;;;;;26.00;17.50;;;;;;;-2.65;78.67;101501.04;107143;1254;69523;-77
2023/01/25 07:51:45;;;;;;;27.80;18.00;;;;;;;-2.52;78.55;101501.23;106741;1261;74128;-78
2023/01/25 07:54:14;;;;;;;29.00;18.30;;;;;;;-2.50;78.51;101501.17;107607;1255;59713;-77
2023/01/25 07:56:42;;;;;;;25.40;17.50;;;;;;;-2.48;78.82;101501.45;106410;1260;60080;-76
2023/01/25 07:59:12;;;;;;;24.20;17.40;;;;;;;-2.44;78.63;101501.36;105722;1257;73371;-76
2023/01/25 08:01:41;;;;;;;29.10;18.60;;;;;;;-2.47;78.24;101497.62;105717;1256;72105;-78
2023/01/25 08:04:09;;;;;;;34.70;19.60;;;;;;;-2.53;78.21;101494.66;105557;1256;73012;-78
2023/01/25 08:06:37;;;;;;;31.10;19.10;;;;;;;-2.62;78.06;101498.54;105652;1254;61431;-77
2023/01/25 08:09:12;;;;;;;24.20;17.20;;;;;;;-2.60;78.12;101500.58;106190;1259;59613;-80
2023/01/25 08:11:40;;;;;;;26.20;17.90;;;;;;;-2.53;78.17;101499.70;107256;1260;74660;-80
2023/01/25 08:14:10;;;;;;;30.80;20.30;;;;;;;-2.58;78.43;101500.19;106140;1259;69594;-77
2023/01/25 08:16:38;;;;;;;28.40;20.10;;;;;;;-2.64;78.51;101497.89;105584;1261;72114;-79
2023/01/25 08:19:08;;;;;;;31.70;20.90;;;;;;;-2.65;78.89;101500.70;105842;1260;60845;-78
2023/01/25 08:21:36;;;;;;;31.30;20.90;;;;;;;-2.63;78.87;101504.12;105596;1261;59579;-78
2023/01/25 08:24:06;;;;;;;34.00;21.90;;;;;;;-2.61;78.87;101500.95;106042;1258;74108;-80
2023/01/25 08:26:34;;;;;;;27.10;18.90;;;;;;;-2.62;78.87;101496.30;105938;1256;70129;-78
2023/01/25 08:29:03;;;;;;;30.00;20.90;;;;;;;-2.65;78.73;101497.59;105618;1256;72567;-78
2023/01/25 08:31:33;;;;;;;26.60;17.50;;;;;;;-2.54;78.68;101495.55;105497;1254;62391;-77
2023/01/25 08:34:02;;;;;;;31.00;20.70;;;;;;;-2.46;78.62;101494.48;105552;1256;59685;-76
2023/01/25 08:36:32;;;;;;;32.50;20.30;;;;;;;-2.47;78.80;101497.11;105591;1256;71156;-78
2023/01/25 08:39:03;;;;;;;28.30;20.20;;;;;;;-2.45;78.79;101496.02;105394;1256;70260;-81
2023/01/25 08:41:31;;;;;;;37.50;23.30;;;;;;;-2.50;78.45;101494.05;105842;1254;73821;-78
2023/01/25 08:43:59;;;;;;;36.20;23.70;;;;;;;-2.57;78.44;101493.54;105927;1255;60880;-77
2023/01/25 08:46:31;;;;;;;34.50;24.20;;;;;;;-2.63;78.59;101491.81;105770;1255;61350;-78
2023/01/25 08:49:00;;;;;;;37.70;23.30;;;;;;;-2.66;78.81;101490.33;105818;1256;70498;-80
2023/01/25 08:51:30;;;;;;;37.30;23.60;;;;;;;-2.68;78.78;101495.75;106011;1260;70619;-79
2023/01/25 08:54:10;;;;;;;33.50;20.30;;;;;;;-2.59;78.58;101495.33;106814;1254;70807;-79
2023/01/25 08:56:39;;;;;;;28.80;20.60;;;;;;;-2.45;78.39;101496.52;106752;1258;59637;-78
2023/01/25 08:59:12;;;;;;;30.50;20.70;;;;;;;-2.46;78.33;101505.25;106923;1254;61331;-80
2023/01/25 09:01:40;;;;;;;27.00;20.00;;;;;;;-2.52;78.46;101503.98;108888;1254;71267;-81
2023/01/25 09:04:08;;;;;;;30.40;20.80;;;;;;;-2.55;78.55;101496.45;108695;1254;69223;-80
2023/01/25 09:06:39;;;;;;;31.10;21.60;;;;;;;-2.58;78.58;101498.77;106257;1260;70136;-81
2023/01/25 09:09:07;;;;;;;36.40;25.20;;;;;;;-2.59;78.78;101497.59;105939;1254;59621;-80
2023/01/25 09:11:36;;;;;;;37.20;23.90;;;;;;;-2.58;79.00;101495.98;105834;1256;60001;-82
2023/01/25 09:14:06;;;;;;;34.70;23.80;;;;;;;-2.55;78.89;101495.08;106016;1256;75199;-82
2023/01/25 09:16:36;;;;;;;30.40;21.30;;;;;;;-2.44;78.57;101497.37;106372;1256;71642;-81
2023/01/25 09:19:04;;;;;;;35.90;23.40;;;;;;;-2.34;78.29;101494.52;106459;1254;71994;-80
2023/01/25 09:21:33;;;;;;;41.60;23.40;;;;;;;-2.38;78.29;101493.73;106131;1256;59725;-82
2023/01/25 09:24:00;;;;;;;37.90;24.30;;;;;;;-2.44;78.42;101493.38;106641;1254;59560;-82
2023/01/25 09:26:39;;;;;;;39.80;26.40;;;;;;;-2.50;78.50;101493.17;109111;1254;72975;-81
2023/01/25 09:29:12;;;;;;;33.00;24.10;;;;;;;-2.55;78.75;101497.31;106617;1260;71588;-81
2023/01/25 09:31:43;;;;;;;36.00;26.20;;;;;;;-2.59;78.61;101496.54;106605;1254;73904;-84
2023/01/25 09:34:14;;;;;;;36.00;24.00;;;;;;;-2.62;78.80;101491.95;106279;1259;61002;-83
2023/01/25 09:36:43;;;;;;;31.10;20.90;;;;;;;-2.54;78.51;101492.09;106497;1258;60296;-83
2023/01/25 09:39:11;;;;;;;34.20;23.70;;;;;;;-2.47;78.37;101487.55;107116;1256;72538;-83
2023/01/25 09:41:58;;;;;;;29.80;22.80;;;;;;;-2.51;78.34;101487.67;106078;1256;68672;-81
2023/01/25 09:44:43;;;;;;;29.80;21.80;;;;;;;-2.62;78.31;101480.15;105956;1259;72122;-81
2023/01/25 09:47:53;;;;;;;36.40;24.30;;;;;;;-2.70;78.53;101474.83;105908;1256;60461;-81
2023/01/25 09:51:10;;;;;;;42.40;27.10;;;;;;;-2.77;78.81;101476.38;106008;1256;60914;-81
2023/01/25 09:53:58;;;;;;;40.50;25.80;;;;;;;-2.80;78.99;101474.36;106306;1257;72733;-83
2023/01/25 09:56:29;;;;;;;36.50;23.10;;;;;;;-2.66;78.83;101469.50;106362;1256;69948;-81
2023/01/25 09:58:59;;;;;;;39.30;26.60;;;;;;;-2.58;78.89;101464.60;105957;1261;71551;-81
2023/01/25 10:01:50;;;;;;;42.10;28.40;;;;;;;-2.57;79.16;101458.15;106119;1256;60527;-82
2023/01/25 10:04:21;;;;;;;37.70;24.90;;;;;;;-2.52;79.17;101457.35;107025;1259;60549;-83
2023/01/25 10:06:57;;;;;;;39.40;27.20;;;;;;;-2.54;78.96;101455.48;106612;1256;73791;-77
2023/01/25 10:09:39;;;;;;;47.00;29.50;;;;;;;-2.58;78.91;101447.77;107616;1255;69362;-79
2023/01/25 10:12:14;;;;;;;35.70;25.90;;;;;;;-2.56;79.10;101445.47;107609;1255;71136;-77
2023/01/25 10:14:42;;;;;;;33.10;24.10;;;;;;;-2.55;79.08;101445.10;106155;1254;60530;-79
2023/01/25 10:17:37;;;;;;;36.00;24.10;;;;;;;-2.46;78.79;101439.30;106086;1261;60416;-78
2023/01/25 10:20:31;;;;;;;37.80;24.50;;;;;;;-2.29;78.71;101425.80;106643;1259;72115;-77
2023/01/25 10:23:21;;;;;;;34.00;23.20;;;;;;;-2.24;78.61;101426.52;106048;1254;69342;-80
2023/01/25 10:25:57;;;;;;;32.10;23.50;;;;;;;-2.26;78.33;101426.59;105768;1258;73023;-80
2023/01/25 10:28:45;;;;;;;34.10;24.20;;;;;;;-2.33;78.31;101418.44;106079;1256;60681;-79
2023/01/25 10:31:18;;;;;;;36.70;25.00;;;;;;;-2.39;78.50;101412.00;107279;1258;60423;-79
2023/01/25 10:33:47;;;;;;;40.40;26.10;;;;;;;-2.39;78.50;101407.52;106467;1258;73003;-77
2023/01/25 10:36:16;;;;;;;37.50;26.20;;;;;;;-2.36;78.49;101405.36;106027;1256;68102;-82
2023/01/25 10:38:46;;;;;;;36.20;25.20;;;;;;;-2.33;78.61;101410.28;105784;1260;72179;-80
2023/01/25 10:41:18;;;;;;;35.00;22.30;;;;;;;-2.29;78.23;101404.10;105711;1257;60476;-76
2023/01/25 10:43:47;;;;;;;36.00;24.60;;;;;;;-2.18;77.91;101402.20;105598;1258;60426;-75
2023/01/25 10:46:22;;;;;;;41.10;24.10;;;;;;;-2.07;77.95;101394.23;105391;1268;73055;-74
2023/01/25 10:48:50;;;;;;;39.70;26.60;;;;;;;-2.05;77.72;101387.06;105281;1257;70424;-73
2023/01/25 10:51:30;;;;;;;44.10;28.40;;;;;;;-2.12;77.42;101392.84;105409;1258;72232;-73
2023/01/25 10:54:03;;;;;;;43.60;29.90;;;;;;;-2.23;77.67;101393.32;105383;1261;60500;-74
2023/01/25 10:56:32;;;;;;;;;;;;;;;-2.33;77.40;101387.55;105401;1262;60687;-73
2023/01/25 10:59:15;;;;;;;51.30;30.90;;;;;;;-2.47;77.64;101386.21;105330;1260;74790;-73
2023/01/25 11:01:44;;;;;;;49.20;30.80;;;;;;;-2.49;77.83;101379.34;105310;1254;70635;-73
2023/01/25 11:04:31;;;;;;;44.90;29.90;;;;;;;-2.45;77.86;101377.84;105533;1269;73110;-73
2023/01/25 11:07:04;;;;;;;43.30;29.70;;;;;;;-2.49;78.42;101376.75;105468;1260;60930;-73
2023/01/25 11:09:39;;;;;;;42.50;30.10;;;;;;;-2.52;78.61;101372.31;105485;1259;60450;-73
2023/01/25 11:12:09;;;;;;;47.10;31.00;;;;;;;-2.55;78.67;101368.08;105519;1259;71854;-73
2023/01/25 11:14:37;;;;;;;47.50;31.70;;;;;;;-2.60;78.63;101362.84;106209;1260;71295;-73
2023/01/25 11:17:26;;;;;;;48.50;31.20;;;;;;;-2.65;78.64;101364.17;106586;1259;72662;-73
2023/01/25 11:20:13;;;;;;;45.30;28.10;;;;;;;-2.68;78.85;101363.40;106308;1259;60481;-73
2023/01/25 11:22:55;;;;;;;39.60;27.40;;;;;;;-2.56;78.71;101360.99;106356;1254;60867;-73
2023/01/25 11:25:25;;;;;;;47.10;31.70;;;;;;;-2.46;78.67;101357.05;106153;1260;72642;-73
2023/01/25 11:28:22;;;;;;;48.20;31.30;;;;;;;-2.48;78.62;101360.24;106242;1257;71444;-73